If you wish to contribute or participate in the discussions about articles you are invited to join SKYbrary as a registered user

 Actions

Luxeuil-Saint-Sauveur (BA 116) Air Base

From SKYbrary Wiki

LFSX
Airport
ICAO: LFSX
Summary
Name Luxeuil-Saint-Sauveur (BA 116) Air Base
Region Europe
Territory France FR.gif
Location , Franche-Comte
Serving Luxeuil
Elevation 278.282 m
913 ft
913 ft278.282 m
Type medium airport
Coordinates 47° 46' 59.27" N, 6° 21' 50.60" E
Runways
Designator Length Width Surface ROPS
4/22 2315 m7,595.144 ft
36 m118.11 ft
ASP /
11/29 2433 m7,982.283 ft
45 m147.638 ft
ASP /


METAR
Observation LFSX 191130Z AUTO VRB03KT 9999 SCT038 BKN056 22/14 Q1019
Station Luxeuil
Date/Time 19 August 2019 11:30:00
Wind direction °
Wind speed 03 kts
Lowest cloud amount scattered clouds
Temperature 22°C
Dew point 14°C
Humidity 60%
QNH 1019 hPa
Weather condition n/a